createdAt,value
2017-06-18T00:00:38.512Z,1021.51
2017-06-18T00:01:38.561Z,1021.51
2017-06-18T00:02:38.597Z,1021.49
2017-06-18T00:03:38.629Z,1021.52
2017-06-18T00:04:38.659Z,1021.55
2017-06-18T00:05:38.691Z,1021.54
2017-06-18T00:06:38.729Z,1021.57
2017-06-18T00:07:38.758Z,1021.54
2017-06-18T00:08:38.795Z,1021.52
2017-06-18T00:09:38.827Z,1021.5
2017-06-18T00:10:38.862Z,1021.54
2017-06-18T00:11:38.897Z,1021.55
2017-06-18T00:12:38.927Z,1021.54
2017-06-18T00:13:38.963Z,1021.55
2017-06-18T00:14:38.999Z,1021.53
2017-06-18T00:15:39.030Z,1021.52
2017-06-18T00:16:39.065Z,1021.55
2017-06-18T00:17:39.097Z,1021.51
2017-06-18T00:18:39.132Z,1021.52
2017-06-18T00:19:39.160Z,1021.55
2017-06-18T00:20:39.196Z,1021.54
2017-06-18T00:21:39.231Z,1021.56
2017-06-18T00:22:39.243Z,1021.49
2017-06-18T00:23:39.290Z,1021.52
2017-06-18T00:24:39.331Z,1021.54
2017-06-18T00:25:39.346Z,1021.49
2017-06-18T00:26:39.395Z,1021.53
2017-06-18T00:27:39.435Z,1021.53
2017-06-18T00:28:39.463Z,1021.47
2017-06-18T00:29:39.497Z,1021.45
2017-06-18T00:30:39.534Z,1021.5
2017-06-18T00:31:39.545Z,1021.45
2017-06-18T00:32:39.598Z,1021.44
2017-06-18T00:33:39.634Z,1021.45
2017-06-18T00:34:39.649Z,1021.42
2017-06-18T00:35:39.697Z,1021.45
2017-06-18T00:36:39.734Z,1021.49
2017-06-18T00:37:39.765Z,1021.46
2017-06-18T00:38:39.796Z,1021.52
2017-06-18T00:39:39.837Z,1021.47
2017-06-18T00:40:39.861Z,1021.54
2017-06-18T00:41:39.896Z,1021.53
2017-06-18T00:42:39.926Z,1021.57
2017-06-18T00:43:39.961Z,1021.6
2017-06-18T00:44:39.996Z,1021.58
2017-06-18T00:45:40.031Z,1021.55
2017-06-18T00:46:40.040Z,1021.56
2017-06-18T00:47:40.091Z,1021.53
2017-06-18T00:48:40.129Z,1021.54
2017-06-18T00:49:40.163Z,1021.48
2017-06-18T00:50:40.191Z,1021.49
2017-06-18T00:51:40.227Z,1021.52
2017-06-18T00:52:40.261Z,1021.51
2017-06-18T00:53:40.291Z,1021.53
2017-06-18T00:54:40.328Z,1021.55
2017-06-18T00:55:40.358Z,1021.51
2017-06-18T00:56:40.391Z,1021.52
2017-06-18T00:57:40.426Z,1021.55
2017-06-18T00:58:40.455Z,1021.52
2017-06-18T00:59:40.488Z,1021.55
2017-06-18T01:00:40.526Z,1021.57
2017-06-18T01:01:40.538Z,1021.54
2017-06-18T01:02:40.584Z,1021.54
2017-06-18T01:03:40.627Z,1021.58
2017-06-18T01:04:40.642Z,1021.57
2017-06-18T01:05:40.690Z,1021.58
2017-06-18T01:06:40.717Z,1021.56
2017-06-18T01:07:40.754Z,1021.55
2017-06-18T01:08:40.789Z,1021.59
2017-06-18T01:09:40.822Z,1021.56
2017-06-18T01:10:40.842Z,1021.6
2017-06-18T01:11:40.884Z,1021.62
2017-06-18T01:12:40.922Z,1021.65
2017-06-18T01:13:40.929Z,1021.65
2017-06-18T01:14:40.981Z,1021.65
2017-06-18T01:15:41.017Z,1021.63
2017-06-18T01:16:41.045Z,1021.65
2017-06-18T01:17:41.081Z,1021.67
2017-06-18T01:18:41.114Z,1021.71
2017-06-18T01:19:41.145Z,1021.68
2017-06-18T01:20:41.177Z,1021.72
2017-06-18T01:21:41.210Z,1021.73
2017-06-18T01:22:41.241Z,1021.66
2017-06-18T01:23:41.278Z,1021.69
2017-06-18T01:24:41.309Z,1021.66
2017-06-18T01:25:41.342Z,1021.73
2017-06-18T01:26:41.374Z,1021.73
2017-06-18T01:27:41.416Z,1021.68
2017-06-18T01:28:41.444Z,1021.68
2017-06-18T01:29:41.476Z,1021.68
2017-06-18T01:30:41.509Z,1021.73
2017-06-18T01:31:41.546Z,1021.73
2017-06-18T01:32:41.579Z,1021.76
2017-06-18T01:33:41.608Z,1021.79
2017-06-18T01:34:41.645Z,1021.75
2017-06-18T01:35:41.674Z,1021.81
2017-06-18T01:36:41.707Z,1021.82
2017-06-18T01:37:41.741Z,1021.87
2017-06-18T01:38:41.782Z,1021.91
2017-06-18T01:39:41.807Z,1021.88
2017-06-18T01:40:41.842Z,1021.9
2017-06-18T01:41:41.859Z,1021.88
2017-06-18T01:42:41.906Z,1021.86
2017-06-18T01:43:41.942Z,1021.85
2017-06-18T01:44:41.970Z,1021.87
2017-06-18T01:45:42.003Z,1021.88
2017-06-18T01:46:42.036Z,1021.93
2017-06-18T01:47:42.072Z,1021.86
2017-06-18T01:48:42.103Z,1021.92
2017-06-18T01:49:42.137Z,1021.88
2017-06-18T01:50:42.170Z,1021.88
2017-06-18T01:51:42.184Z,1021.9
2017-06-18T01:52:42.237Z,1021.88
2017-06-18T01:53:42.247Z,1021.91
2017-06-18T01:54:42.301Z,1021.9
2017-06-18T01:55:42.330Z,1021.87
2017-06-18T01:56:42.348Z,1021.86
2017-06-18T01:57:42.395Z,1021.84
2017-06-18T01:58:42.433Z,1021.83
2017-06-18T01:59:42.448Z,1021.84
2017-06-18T02:00:42.495Z,1021.8
2017-06-18T02:01:42.528Z,1021.86
2017-06-18T02:02:42.565Z,1021.86
2017-06-18T02:03:42.595Z,1021.87
2017-06-18T02:04:42.627Z,1021.88
2017-06-18T02:05:42.659Z,1021.91
2017-06-18T02:06:42.692Z,1021.9
2017-06-18T02:07:42.711Z,1021.92
2017-06-18T02:08:42.763Z,1021.88
2017-06-18T02:09:42.788Z,1021.87
2017-06-18T02:10:42.822Z,1021.85
2017-06-18T02:11:42.854Z,1021.89
2017-06-18T02:12:42.888Z,1021.86
2017-06-18T02:13:42.924Z,1021.85
2017-06-18T02:14:42.959Z,1021.89
2017-06-18T02:15:42.985Z,1021.89
2017-06-18T02:16:43.020Z,1021.88
2017-06-18T02:17:43.054Z,1021.9
2017-06-18T02:18:43.089Z,1021.92
2017-06-18T02:19:43.118Z,1021.89
2017-06-18T02:20:43.153Z,1021.9
2017-06-18T02:21:43.185Z,1021.91
2017-06-18T02:22:43.216Z,1021.91
2017-06-18T02:23:43.253Z,1021.92
2017-06-18T02:24:43.281Z,1021.91
2017-06-18T02:25:43.315Z,1021.89
2017-06-18T02:26:43.347Z,1021.88
2017-06-18T02:27:43.383Z,1021.9
2017-06-18T02:28:43.414Z,1021.86
2017-06-18T02:29:43.446Z,1021.89
2017-06-18T02:30:43.483Z,1021.85
2017-06-18T02:31:43.514Z,1021.88
2017-06-18T02:32:43.545Z,1021.87
2017-06-18T02:33:43.577Z,1021.87
2017-06-18T02:34:43.607Z,1021.86
2017-06-18T02:35:43.648Z,1021.9
2017-06-18T02:36:43.676Z,1021.86
2017-06-18T02:37:43.708Z,1021.9
2017-06-18T02:38:43.741Z,1021.86
2017-06-18T02:39:43.778Z,1021.9
2017-06-18T02:40:43.806Z,1021.87
2017-06-18T02:41:43.840Z,1021.87
2017-06-18T02:42:43.875Z,1021.86
2017-06-18T02:43:43.910Z,1021.85
2017-06-18T02:44:43.936Z,1021.88
2017-06-18T02:45:43.973Z,1021.91
2017-06-18T02:46:44.004Z,1021.87
2017-06-18T02:47:44.040Z,1021.89
2017-06-18T02:48:44.069Z,1021.94
2017-06-18T02:49:44.101Z,1021.94
2017-06-18T02:50:44.137Z,1021.95
2017-06-18T02:51:44.173Z,1021.94
2017-06-18T02:52:44.202Z,1021.98
2017-06-18T02:53:44.220Z,1021.96
2017-06-18T02:54:44.269Z,1022
2017-06-18T02:55:44.302Z,1021.95
2017-06-18T02:56:44.331Z,1021.99
2017-06-18T02:57:44.367Z,1021.95
2017-06-18T02:58:44.395Z,1021.94
2017-06-18T02:59:44.431Z,1021.94
2017-06-18T03:00:44.459Z,1021.94
2017-06-18T03:01:44.496Z,1021.86
2017-06-18T03:02:44.528Z,1021.91
2017-06-18T03:03:44.572Z,1021.86
2017-06-18T03:04:44.590Z,1021.92
2017-06-18T03:05:44.634Z,1021.93
2017-06-18T03:06:44.657Z,1021.85
2017-06-18T03:07:44.716Z,1021.88
2017-06-18T03:08:44.705Z,1021.85
2017-06-18T03:09:44.756Z,1021.85
2017-06-18T03:10:44.790Z,1021.84
2017-06-18T03:11:44.825Z,1021.85
2017-06-18T03:12:44.865Z,1021.84
2017-06-18T03:13:44.886Z,1021.82
2017-06-18T03:14:44.918Z,1021.79
2017-06-18T03:15:44.952Z,1021.8
2017-06-18T03:16:44.997Z,1021.83
2017-06-18T03:17:45.017Z,1021.85
2017-06-18T03:18:45.051Z,1021.93
2017-06-18T03:19:45.087Z,1021.87
2017-06-18T03:20:45.115Z,1021.85
2017-06-18T03:21:45.149Z,1021.87
2017-06-18T03:22:45.186Z,1021.9
2017-06-18T03:23:45.212Z,1021.93
2017-06-18T03:24:45.233Z,1021.97
2017-06-18T03:25:45.279Z,1021.95
2017-06-18T03:26:45.313Z,1021.9
2017-06-18T03:27:45.345Z,1021.89
2017-06-18T03:28:45.380Z,1021.86
2017-06-18T03:29:45.402Z,1021.88
2017-06-18T03:30:45.446Z,1021.85
2017-06-18T03:31:45.463Z,1021.92
2017-06-18T03:32:45.511Z,1021.86
2017-06-18T03:33:45.537Z,1021.92
2017-06-18T03:34:45.578Z,1021.9
2017-06-18T03:35:45.611Z,1021.87
2017-06-18T03:36:45.639Z,1021.87
2017-06-18T03:37:45.672Z,1021.85
2017-06-18T03:38:45.709Z,1021.84
2017-06-18T03:39:45.738Z,1021.88
2017-06-18T03:40:45.771Z,1021.91
2017-06-18T03:41:45.807Z,1021.89
2017-06-18T03:42:45.837Z,1021.9
2017-06-18T03:43:45.865Z,1021.86
2017-06-18T03:44:45.902Z,1021.9
2017-06-18T03:45:45.936Z,1021.93
2017-06-18T03:46:45.969Z,1021.92
2017-06-18T03:47:46.001Z,1021.96
2017-06-18T03:48:46.036Z,1021.98
2017-06-18T03:49:46.066Z,1021.91
2017-06-18T03:50:46.103Z,1021.95
2017-06-18T03:51:46.130Z,1021.9
2017-06-18T03:52:46.164Z,1021.96
2017-06-18T03:53:46.199Z,1021.95
2017-06-18T03:54:46.214Z,1021.93
2017-06-18T03:55:46.262Z,1021.94
2017-06-18T03:56:46.297Z,1021.98
2017-06-18T03:57:46.328Z,1021.98
2017-06-18T03:58:46.361Z,1021.97
2017-06-18T03:59:46.401Z,1022
2017-06-18T04:00:46.418Z,1021.98
2017-06-18T04:01:46.477Z,1022
2017-06-18T04:02:46.508Z,1022.01
2017-06-18T04:03:46.543Z,1022.03
2017-06-18T04:04:46.549Z,1022.02
2017-06-18T04:05:46.611Z,1021.99
2017-06-18T04:06:46.615Z,1022.02
2017-06-18T04:07:46.679Z,1022.06
2017-06-18T04:08:46.708Z,1022.04
2017-06-18T04:09:46.738Z,1022.11
2017-06-18T04:10:46.751Z,1022.19
2017-06-18T04:11:46.812Z,1022.23
2017-06-18T04:12:46.834Z,1022.36
2017-06-18T04:13:46.873Z,1022.57
2017-06-18T04:14:46.905Z,1022.77
2017-06-18T04:15:46.919Z,1022.93
2017-06-18T04:16:46.950Z,1022.98
2017-06-18T04:17:47.006Z,1022.89
2017-06-18T04:18:47.011Z,1022.89
2017-06-18T04:19:47.050Z,1022.76
2017-06-18T04:20:47.110Z,1022.61
2017-06-18T04:21:47.119Z,1022.48
2017-06-18T04:22:47.182Z,1022.6
2017-06-18T04:23:47.211Z,1022.88
2017-06-18T04:24:47.218Z,1023.2
2017-06-18T04:25:47.283Z,1023.32
2017-06-18T04:26:47.317Z,1023.34
2017-06-18T04:27:47.354Z,1023.4
2017-06-18T04:28:47.367Z,1023.44
2017-06-18T04:29:47.411Z,1023.39
2017-06-18T04:30:47.459Z,1023.33
2017-06-18T04:31:47.500Z,1023.27
2017-06-18T04:32:47.510Z,1022.84
2017-06-18T04:33:47.545Z,1022.39
2017-06-18T04:34:47.609Z,1022.36
2017-06-18T04:35:47.624Z,1022.47
2017-06-18T04:36:47.689Z,1022.42
2017-06-18T04:37:47.723Z,1022.51
2017-06-18T04:38:47.760Z,1022.7
2017-06-18T04:39:47.797Z,1022.51
2017-06-18T04:40:47.836Z,1022.53
2017-06-18T04:41:47.873Z,1022.58
2017-06-18T04:42:47.885Z,1022.5
2017-06-18T04:43:47.923Z,1022.63
2017-06-18T04:44:47.960Z,1022.79
2017-06-18T04:45:47.991Z,1023.57
2017-06-18T04:46:48.059Z,1023.9
2017-06-18T04:47:48.100Z,1023.61
2017-06-18T04:48:48.134Z,1022.95
2017-06-18T04:49:48.149Z,1022.79
2017-06-18T04:50:48.184Z,1022.98
2017-06-18T04:51:48.222Z,1022.87
2017-06-18T04:52:48.265Z,1022.6
2017-06-18T04:53:48.324Z,1022.48
2017-06-18T04:54:48.363Z,1022.46
2017-06-18T04:55:48.377Z,1022.36
2017-06-18T04:56:48.440Z,1022.45
2017-06-18T04:57:48.474Z,1022.5
2017-06-18T04:58:48.491Z,1022.47
2017-06-18T04:59:48.552Z,1022.52
2017-06-18T05:00:48.592Z,1022.65
2017-06-18T05:01:48.627Z,1022.63
2017-06-18T05:02:48.668Z,1022.66
2017-06-18T05:03:48.704Z,1022.71
2017-06-18T05:04:48.741Z,1022.73
2017-06-18T05:05:48.755Z,1022.67
2017-06-18T05:06:48.794Z,1022.68
2017-06-18T05:07:48.824Z,1022.69
2017-06-18T05:08:48.865Z,1022.75
2017-06-18T05:09:48.931Z,1022.79
2017-06-18T05:10:48.967Z,1022.58
2017-06-18T05:11:49.002Z,1022.56
2017-06-18T05:12:49.043Z,1022.59
2017-06-18T05:13:49.081Z,1022.69
2017-06-18T05:14:49.118Z,1022.72
2017-06-18T05:15:49.133Z,1022.75
2017-06-18T05:16:49.167Z,1022.74
2017-06-18T05:17:49.232Z,1022.67
2017-06-18T05:18:49.240Z,1022.59
2017-06-18T05:19:49.281Z,1022.52
2017-06-18T05:20:49.343Z,1022.54
2017-06-18T05:21:49.357Z,1022.51
2017-06-18T05:22:49.424Z,1022.51
2017-06-18T05:23:49.433Z,1022.52
2017-06-18T05:24:49.473Z,1022.49
2017-06-18T05:25:49.540Z,1022.46
2017-06-18T05:26:49.555Z,1022.44
2017-06-18T05:27:49.590Z,1022.5
2017-06-18T05:28:49.653Z,1022.47
2017-06-18T05:29:49.687Z,1022.51
2017-06-18T05:30:49.729Z,1022.5
2017-06-18T05:31:49.739Z,1022.57
2017-06-18T05:32:49.779Z,1022.59
2017-06-18T05:33:49.845Z,1022.59
2017-06-18T05:34:49.856Z,1022.55
2017-06-18T05:35:49.894Z,1022.55
2017-06-18T05:36:49.957Z,1022.59
2017-06-18T05:37:49.995Z,1022.54
2017-06-18T05:38:50.034Z,1022.59
2017-06-18T05:39:50.044Z,1022.58
2017-06-18T05:40:50.106Z,1022.54
2017-06-18T05:41:50.146Z,1022.56
2017-06-18T05:42:50.159Z,1022.57
2017-06-18T05:43:50.220Z,1022.57
2017-06-18T05:44:50.255Z,1022.57
2017-06-18T05:45:50.297Z,1022.57
2017-06-18T05:46:50.336Z,1022.6
2017-06-18T05:47:50.344Z,1022.59
2017-06-18T05:48:50.414Z,1022.61
2017-06-18T05:49:50.447Z,1022.58
2017-06-18T05:50:50.484Z,1022.61
2017-06-18T05:51:50.521Z,1022.55
2017-06-18T05:52:50.556Z,1022.59
2017-06-18T05:53:50.599Z,1022.58
2017-06-18T05:54:50.608Z,1022.6
2017-06-18T05:55:50.639Z,1022.61
2017-06-18T05:56:50.715Z,1022.59
2017-06-18T05:57:50.749Z,1022.63
2017-06-18T05:58:50.781Z,1022.68
2017-06-18T05:59:50.823Z,1022.64
2017-06-18T06:00:50.858Z,1022.67
2017-06-18T06:01:50.874Z,1022.75
2017-06-18T06:02:50.910Z,1022.65
2017-06-18T06:03:50.952Z,1022.64
2017-06-18T06:04:50.981Z,1022.67
2017-06-18T06:05:51.048Z,1022.68
2017-06-18T06:06:51.083Z,1022.76
2017-06-18T06:07:51.121Z,1022.78
2017-06-18T06:08:51.154Z,1022.77
2017-06-18T06:09:51.196Z,1022.76
2017-06-18T06:10:51.233Z,1022.77
2017-06-18T06:11:51.246Z,1022.78
2017-06-18T06:12:51.310Z,1022.79
2017-06-18T06:13:51.351Z,1022.85
2017-06-18T06:14:51.366Z,1022.86
2017-06-18T06:15:51.399Z,1022.9
2017-06-18T06:16:51.464Z,1022.86
2017-06-18T06:17:51.476Z,1022.83
2017-06-18T06:18:51.514Z,1022.85
2017-06-18T06:19:51.555Z,1022.87
2017-06-18T06:20:51.591Z,1022.85
2017-06-18T06:21:51.635Z,1022.87
2017-06-18T06:22:51.701Z,1022.84
2017-06-18T06:23:51.714Z,1022.8
2017-06-18T06:24:51.752Z,1022.84
2017-06-18T06:25:51.799Z,1022.84
2017-06-18T06:26:51.862Z,1022.81
2017-06-18T06:27:51.878Z,1022.82
2017-06-18T06:28:51.945Z,1022.82
2017-06-18T06:29:51.956Z,1022.82
2017-06-18T06:30:52.001Z,1022.81
2017-06-18T06:31:52.072Z,1022.85
2017-06-18T06:32:52.087Z,1022.88
2017-06-18T06:33:52.156Z,1022.84
2017-06-18T06:34:52.176Z,1022.87
2017-06-18T06:35:52.216Z,1022.85
2017-06-18T06:36:52.258Z,1022.83
2017-06-18T06:37:52.328Z,1022.85
2017-06-18T06:38:52.343Z,1022.86
2017-06-18T06:39:52.412Z,1022.93
2017-06-18T06:40:52.461Z,1022.91
2017-06-18T06:41:52.473Z,1022.98
2017-06-18T06:42:52.541Z,1022.86
2017-06-18T06:43:52.563Z,1022.86
2017-06-18T06:44:52.605Z,1022.88
2017-06-18T06:45:52.678Z,1022.91
2017-06-18T06:46:52.721Z,1022.89
2017-06-18T06:47:52.768Z,1022.9
2017-06-18T06:48:52.810Z,1022.88
2017-06-18T06:49:52.827Z,1022.86
2017-06-18T06:50:52.903Z,1022.87
2017-06-18T06:51:52.945Z,1022.89
2017-06-18T06:52:52.966Z,1022.85
2017-06-18T06:53:53.007Z,1022.87
2017-06-18T06:54:53.064Z,1022.86
2017-06-18T06:55:53.125Z,1022.86
2017-06-18T06:56:53.174Z,1022.89
2017-06-18T06:57:53.194Z,1022.93
2017-06-18T06:58:53.266Z,1022.88
2017-06-18T06:59:53.310Z,1022.85
2017-06-18T07:00:53.334Z,1022.91
2017-06-18T07:01:53.383Z,1022.89
2017-06-18T07:02:53.445Z,1022.83
2017-06-18T07:03:53.466Z,1022.88
2017-06-18T07:04:53.542Z,1022.84
2017-06-18T07:05:53.562Z,1022.8
2017-06-18T07:06:53.635Z,1022.91
2017-06-18T07:07:53.679Z,1022.92
2017-06-18T07:08:53.702Z,1022.92
2017-06-18T07:09:53.774Z,1022.9
2017-06-18T07:10:53.791Z,1022.93
2017-06-18T07:11:53.865Z,1022.97
2017-06-18T07:12:53.914Z,1023.05
2017-06-18T07:13:53.961Z,1023.02
2017-06-18T07:14:54.003Z,1023.09
2017-06-18T07:15:54.026Z,1023.05
2017-06-18T07:16:54.073Z,1023.06
2017-06-18T07:17:54.118Z,1023.09
2017-06-18T07:18:54.164Z,1023.03
2017-06-18T07:19:54.240Z,1023.08
2017-06-18T07:20:54.263Z,1023.07
2017-06-18T07:21:54.308Z,1023.16
2017-06-18T07:22:54.382Z,1023.24
2017-06-18T07:23:54.396Z,1023.26
2017-06-18T07:24:54.476Z,1022.79
2017-06-18T07:25:54.522Z,1022.95
2017-06-18T07:26:54.547Z,1023.29
2017-06-18T07:27:54.612Z,1023.33
2017-06-18T07:28:54.626Z,1023.34
2017-06-18T07:29:54.697Z,1023.28
2017-06-18T07:30:54.755Z,1023.45
2017-06-18T07:31:54.775Z,1023.47
2017-06-18T07:32:54.824Z,1023.47
2017-06-18T07:33:54.863Z,1023.03
2017-06-18T07:34:54.943Z,1022.77
2017-06-18T07:35:54.961Z,1022.7
2017-06-18T07:36:55.010Z,1023.42
2017-06-18T07:37:55.057Z,1023.41
2017-06-18T07:38:55.125Z,1022.71
2017-06-18T07:39:55.173Z,1023.45
2017-06-18T07:40:55.224Z,1023.52
2017-06-18T07:41:55.243Z,1023.51
2017-06-18T07:42:55.317Z,1023.46
2017-06-18T07:43:55.364Z,1023.35
2017-06-18T07:44:55.382Z,1022.72
2017-06-18T07:45:55.458Z,1023.38
2017-06-18T07:46:55.477Z,1023.39
2017-06-18T07:47:55.526Z,1023.38
2017-06-18T07:48:55.595Z,1023.36
2017-06-18T07:49:55.645Z,1023.37
2017-06-18T07:50:55.694Z,1023.39
2017-06-18T07:51:55.719Z,1023.35
2017-06-18T07:52:55.789Z,1023.46
2017-06-18T07:53:55.836Z,1022.74
2017-06-18T07:54:55.880Z,1023.49
2017-06-18T07:55:55.928Z,1023.49
2017-06-18T07:56:55.952Z,1023.48
2017-06-18T07:57:55.999Z,1023.44
2017-06-18T07:58:56.076Z,1023.33
2017-06-18T07:59:56.093Z,1023
2017-06-18T08:00:56.164Z,1023.57
2017-06-18T08:01:56.188Z,1023.6
2017-06-18T08:02:56.262Z,1023.56
2017-06-18T08:03:56.287Z,1023.46
2017-06-18T08:04:56.336Z,1023.53
2017-06-18T08:05:56.450Z,1022.98
2017-06-18T08:06:56.453Z,1023.55
2017-06-18T08:07:56.503Z,1022.75
2017-06-18T08:08:56.555Z,1022.81
2017-06-18T08:09:56.600Z,1022.82
2017-06-18T08:10:56.646Z,1022.88
2017-06-18T08:11:56.694Z,1022.9
2017-06-18T08:12:56.717Z,1022.94
2017-06-18T08:13:56.792Z,1023.87
2017-06-18T08:14:56.813Z,1023.69
2017-06-18T08:15:56.852Z,1022.93
2017-06-18T08:16:56.904Z,1022.95
2017-06-18T08:17:56.949Z,1022.93
2017-06-18T08:18:56.994Z,1022.9
2017-06-18T08:19:57.044Z,1022.87
2017-06-18T08:20:57.110Z,1023.78
2017-06-18T08:21:57.130Z,1023.68
2017-06-18T08:22:57.202Z,1023.64
2017-06-18T08:23:57.246Z,1023.77
2017-06-18T08:24:57.261Z,1023.74
2017-06-18T08:25:57.310Z,1023.56
2017-06-18T08:26:57.384Z,1022.91
2017-06-18T08:27:57.403Z,1023.76
2017-06-18T08:28:57.474Z,1023.54
2017-06-18T08:29:57.520Z,1023.08
2017-06-18T08:30:57.569Z,1022.92
2017-06-18T08:31:57.616Z,1022.82
2017-06-18T08:32:57.633Z,1022.87
2017-06-18T08:33:57.707Z,1023.01
2017-06-18T08:34:57.725Z,1022.99
2017-06-18T08:35:57.771Z,1023.78
2017-06-18T08:36:57.823Z,1023.75
2017-06-18T08:37:57.864Z,1023.69
2017-06-18T08:38:57.904Z,1023.55
2017-06-18T08:39:57.981Z,1023.58
2017-06-18T08:40:58.020Z,1023.57
2017-06-18T08:41:58.074Z,1023.52
2017-06-18T08:42:58.088Z,1023.45
2017-06-18T08:43:58.142Z,1023.52
2017-06-18T08:44:58.213Z,1023.51
2017-06-18T08:45:58.228Z,1023.53
2017-06-18T08:46:58.305Z,1023.01
2017-06-18T08:47:58.329Z,1023.52
2017-06-18T08:48:58.379Z,1023.48
2017-06-18T08:49:58.448Z,1023.51
2017-06-18T08:50:58.470Z,1022.64
2017-06-18T08:51:58.544Z,1023.01
2017-06-18T08:52:58.561Z,1023.49
2017-06-18T08:53:58.617Z,1023.45
2017-06-18T08:54:58.692Z,1023.46
2017-06-18T08:55:58.705Z,1023.45
2017-06-18T08:56:58.798Z,1023.44
2017-06-18T08:57:58.805Z,1023.47
2017-06-18T08:58:58.866Z,1023.37
2017-06-18T08:59:58.908Z,1023.33
2017-06-18T09:00:58.982Z,1023.37
2017-06-18T09:01:59.005Z,1023.46
2017-06-18T09:02:59.081Z,1023.49
2017-06-18T09:03:59.103Z,1023.46
2017-06-18T09:04:59.159Z,1023.47
2017-06-18T09:05:59.204Z,1023.52
2017-06-18T09:06:59.281Z,1023.41
2017-06-18T09:07:59.301Z,1023.39
2017-06-18T09:08:59.384Z,1023.42
2017-06-18T09:09:59.410Z,1023.46
2017-06-18T09:10:59.462Z,1023.51
2017-06-18T09:11:59.510Z,1023.55
2017-06-18T09:12:59.557Z,1023.47
2017-06-18T09:13:59.609Z,1023.5
2017-06-18T09:14:59.660Z,1023.5
2017-06-18T09:15:59.721Z,1023.5
2017-06-18T09:16:59.788Z,1023.52
2017-06-18T09:17:59.816Z,1023.49
2017-06-18T09:18:59.860Z,1023.56
2017-06-18T09:19:59.942Z,1023.53
2017-06-18T09:20:59.997Z,1023.54
2017-06-18T09:22:00.027Z,1023.55
2017-06-18T09:23:00.102Z,1023.57
2017-06-18T09:24:00.149Z,1023.55
2017-06-18T09:25:00.177Z,1023.5
2017-06-18T09:26:00.289Z,1023.42
2017-06-18T09:27:00.304Z,1023.46
2017-06-18T09:28:00.332Z,1023.38
2017-06-18T09:29:00.392Z,1023.42
2017-06-18T09:30:00.430Z,1023.43
2017-06-18T09:31:00.487Z,1023.4
2017-06-18T09:32:00.567Z,1023.29
2017-06-18T09:33:00.621Z,1023.29
2017-06-18T09:34:00.671Z,1023.34
2017-06-18T09:35:00.721Z,1023.33
2017-06-18T09:36:00.773Z,1023.36
2017-06-18T09:37:00.802Z,1023.41
2017-06-18T09:38:00.857Z,1023.44
2017-06-18T09:39:00.904Z,1023.37
2017-06-18T09:40:00.987Z,1023.43
2017-06-18T09:41:01.014Z,1023.28
2017-06-18T09:42:01.091Z,1023.28
2017-06-18T09:43:01.116Z,1023.34
2017-06-18T09:44:01.196Z,1023.4
2017-06-18T09:45:01.222Z,1023.42
2017-06-18T09:46:01.302Z,1023.43
2017-06-18T09:47:01.353Z,1023.37
2017-06-18T09:48:01.387Z,1023.39
2017-06-18T09:49:01.435Z,1023.38
2017-06-18T09:50:01.515Z,1023.32
2017-06-18T09:51:01.569Z,1023.37
2017-06-18T09:52:01.621Z,1023.35
2017-06-18T09:53:01.651Z,1023.35
2017-06-18T09:54:01.704Z,1023.24
2017-06-18T09:55:01.752Z,1023.24
2017-06-18T09:56:01.812Z,1023.33
2017-06-18T09:57:01.888Z,1023.38
2017-06-18T09:58:01.912Z,1023.35
2017-06-18T09:59:01.993Z,1023.41
2017-06-18T10:00:02.012Z,1023.41
2017-06-18T10:01:02.085Z,1023.4
2017-06-18T10:02:02.150Z,1023.38
2017-06-18T10:03:02.205Z,1023.3
2017-06-18T10:04:02.231Z,1023.35
2017-06-18T10:05:02.315Z,1023.3
2017-06-18T10:06:02.342Z,1023.33
2017-06-18T10:07:02.419Z,1023.32
2017-06-18T10:08:02.469Z,1023.37
2017-06-18T10:09:02.525Z,1023.45
2017-06-18T10:10:02.576Z,1023.5
2017-06-18T10:11:02.630Z,1023.49
2017-06-18T10:12:02.659Z,1023.46
2017-06-18T10:13:02.710Z,1023.53
2017-06-18T10:14:02.805Z,1023.57
2017-06-18T10:15:02.812Z,1023.57
2017-06-18T10:16:02.873Z,1023.52
2017-06-18T10:17:02.925Z,1023.53
2017-06-18T10:18:02.973Z,1023.55
2017-06-18T10:19:03.056Z,1023.6
2017-06-18T10:20:03.112Z,1023.7
2017-06-18T10:21:03.142Z,1023.8
2017-06-18T10:22:03.213Z,1023.84
2017-06-18T10:23:03.235Z,1023.83
2017-06-18T10:24:03.318Z,1023.91
2017-06-18T10:25:03.344Z,1023.89
2017-06-18T10:26:03.418Z,1023.7
2017-06-18T10:27:03.481Z,1023.74
2017-06-18T10:28:03.495Z,1023.92
2017-06-18T10:29:03.587Z,1024.06
2017-06-18T10:30:03.603Z,1024.18
2017-06-18T10:31:03.643Z,1024.22
2017-06-18T10:32:03.729Z,1024.11
2017-06-18T10:33:03.811Z,1024.05
2017-06-18T10:34:03.831Z,1024.16
2017-06-18T10:35:03.877Z,1024.22
2017-06-18T10:36:03.930Z,1024.13
2017-06-18T10:37:03.947Z,1024.24
2017-06-18T10:38:04.024Z,1024.47
2017-06-18T10:39:04.072Z,1024.49
2017-06-18T10:40:04.122Z,1024.68
2017-06-18T10:41:04.170Z,1024.86
2017-06-18T10:42:04.200Z,1024.79
2017-06-18T10:43:04.250Z,1024.43
2017-06-18T10:44:04.316Z,1024.6
2017-06-18T10:45:04.353Z,1024.87
2017-06-18T10:46:04.410Z,1024.93
2017-06-18T10:47:04.437Z,1025.03
2017-06-18T10:48:04.476Z,1025.04
2017-06-18T10:49:04.525Z,1025.14
2017-06-18T10:50:04.585Z,1025.06
2017-06-18T10:51:04.614Z,1025.02
2017-06-18T10:52:04.660Z,1025.15
2017-06-18T10:53:04.723Z,1025.19
2017-06-18T10:54:04.782Z,1025.12
2017-06-18T10:55:04.829Z,1025.16
2017-06-18T10:56:04.850Z,1025.29
2017-06-18T10:57:04.893Z,1025.26
2017-06-18T10:58:04.936Z,1024.72
2017-06-18T10:59:05.001Z,1023.61
2017-06-18T11:00:05.015Z,1022.64
2017-06-18T11:01:05.063Z,1022.48
2017-06-18T11:02:05.140Z,1022.42
2017-06-18T11:03:05.149Z,1022.38
2017-06-18T11:04:05.225Z,1022.36
2017-06-18T11:05:05.271Z,1022.38
2017-06-18T11:06:05.318Z,1022.36
2017-06-18T11:07:05.354Z,1022.31
2017-06-18T11:08:05.375Z,1022.29
2017-06-18T11:09:05.419Z,1022.29
2017-06-18T11:10:05.466Z,1022.34
2017-06-18T11:11:05.498Z,1022.36
2017-06-18T11:12:05.574Z,1022.41
2017-06-18T11:13:05.617Z,1022.3
2017-06-18T11:14:05.636Z,1022.37
2017-06-18T11:15:05.681Z,1022.31
2017-06-18T11:16:05.721Z,1022.33
2017-06-18T11:17:05.789Z,1022.31
2017-06-18T11:18:05.831Z,1022.28
2017-06-18T11:19:05.852Z,1022.32
2017-06-18T11:20:05.917Z,1022.35
2017-06-18T11:21:05.928Z,1022.32
2017-06-18T11:22:05.978Z,1022.28
2017-06-18T11:23:06.015Z,1022.27
2017-06-18T11:24:06.062Z,1022.29
2017-06-18T11:25:06.128Z,1022.24
2017-06-18T11:26:06.145Z,1022.21
2017-06-18T11:27:06.214Z,1022.2
2017-06-18T11:28:06.230Z,1022.22
2017-06-18T11:29:06.267Z,1022.18
2017-06-18T11:30:06.313Z,1022.16
2017-06-18T11:31:06.352Z,1022.17
2017-06-18T11:32:06.424Z,1022.15
2017-06-18T11:33:06.469Z,1022.17
2017-06-18T11:34:06.483Z,1022.18
2017-06-18T11:35:06.519Z,1022.14
2017-06-18T11:36:06.566Z,1022.13
2017-06-18T11:37:06.609Z,1022.14
2017-06-18T11:38:06.647Z,1022.16
2017-06-18T11:39:06.718Z,1022.15
2017-06-18T11:40:06.750Z,1022.17
2017-06-18T11:41:06.771Z,1022.12
2017-06-18T11:42:06.816Z,1022.11
2017-06-18T11:43:06.861Z,1022.06
2017-06-18T11:44:06.926Z,1022.07
2017-06-18T11:45:06.968Z,1021.98
2017-06-18T11:46:07.005Z,1022.03
2017-06-18T11:47:07.026Z,1021.97
2017-06-18T11:48:07.112Z,1022.01
2017-06-18T11:49:07.131Z,1021.99
2017-06-18T11:50:07.146Z,1021.95
2017-06-18T11:51:07.232Z,1021.95
2017-06-18T11:52:07.251Z,1021.94
2017-06-18T11:53:07.270Z,1021.95
2017-06-18T11:54:07.307Z,1021.95
2017-06-18T11:55:07.392Z,1021.98
2017-06-18T11:56:07.402Z,1022.02
2017-06-18T11:57:07.434Z,1021.98
2017-06-18T11:58:07.479Z,1022.04
2017-06-18T11:59:07.514Z,1022.03
2017-06-18T12:00:07.552Z,1022.04
2017-06-18T12:01:07.598Z,1022
2017-06-18T12:02:07.634Z,1022
2017-06-18T12:03:07.680Z,1021.99
2017-06-18T12:04:07.718Z,1021.96
2017-06-18T12:05:07.759Z,1021.93
2017-06-18T12:06:07.826Z,1021.93
2017-06-18T12:07:07.866Z,1021.94
2017-06-18T12:08:07.880Z,1021.95
2017-06-18T12:09:07.945Z,1021.95